createdAt,value
2022-12-08T00:00:24.893Z,8.70
2022-12-08T00:03:11.529Z,8.40
2022-12-08T00:06:04.982Z,8.50
2022-12-08T00:08:54.629Z,8.00
2022-12-08T00:11:26.114Z,9.20
2022-12-08T00:13:57.576Z,8.60
2022-12-08T00:16:29.067Z,9.30
2022-12-08T00:19:00.602Z,10.30
2022-12-08T00:21:32.413Z,10.40
2022-12-08T00:24:03.925Z,9.30
2022-12-08T00:26:35.412Z,9.50
2022-12-08T00:29:07.019Z,9.80
2022-12-08T00:31:38.836Z,9.90
2022-12-08T00:34:10.411Z,9.20
2022-12-08T00:36:42.041Z,9.30
2022-12-08T00:39:14.692Z,7.00
2022-12-08T00:42:04.391Z,8.00
2022-12-08T00:44:35.865Z,6.80
2022-12-08T00:47:07.895Z,7.10
2022-12-08T00:49:39.576Z,7.30
2022-12-08T00:52:12.613Z,8.40
2022-12-08T00:54:44.128Z,8.20
2022-12-08T00:57:15.667Z,8.20
2022-12-08T00:59:47.103Z,7.00
2022-12-08T01:02:18.596Z,8.70
2022-12-08T01:04:50.120Z,8.70
2022-12-08T01:07:21.668Z,6.90
2022-12-08T01:09:53.651Z,8.20
2022-12-08T01:12:25.231Z,7.60
2022-12-08T01:15:00.715Z,9.00
2022-12-08T01:17:33.926Z,8.10
2022-12-08T01:20:06.906Z,8.00
2022-12-08T01:22:38.588Z,8.00
2022-12-08T01:25:10.969Z,7.20
2022-12-08T01:27:42.427Z,7.90
2022-12-08T01:30:15.433Z,7.10
2022-12-08T01:32:47.350Z,7.60
2022-12-08T01:35:19.265Z,7.80
2022-12-08T01:37:52.273Z,9.20
2022-12-08T01:40:23.823Z,8.00
2022-12-08T01:42:55.300Z,8.80
2022-12-08T01:45:29.578Z,8.20
2022-12-08T01:48:05.899Z,8.70
2022-12-08T01:50:39.402Z,7.90
2022-12-08T01:53:14.710Z,8.10
2022-12-08T01:55:51.149Z,8.70
2022-12-08T01:58:27.997Z,8.60
2022-12-08T02:00:59.554Z,8.30
2022-12-08T02:03:36.505Z,8.70
2022-12-08T02:06:09.747Z,7.50
2022-12-08T02:08:43.071Z,7.10
2022-12-08T02:11:15.252Z,7.00
2022-12-08T02:13:48.585Z,6.90
2022-12-08T02:16:34.092Z,6.30
2022-12-08T02:19:31.852Z,7.80
2022-12-08T02:22:12.213Z,7.60
2022-12-08T02:24:53.691Z,7.30
2022-12-08T02:27:42.030Z,6.90
2022-12-08T02:30:22.004Z,8.00
2022-12-08T02:33:32.571Z,8.60
2022-12-08T02:36:09.436Z,9.20
2022-12-08T02:38:57.391Z,9.90
2022-12-08T02:41:39.535Z,9.00
2022-12-08T02:44:18.919Z,10.70
2022-12-08T02:46:54.563Z,9.50
2022-12-08T02:49:31.162Z,9.10
2022-12-08T02:52:30.284Z,7.20
2022-12-08T02:55:07.398Z,7.60
2022-12-08T02:57:50.358Z,7.00
2022-12-08T03:00:25.496Z,7.60
2022-12-08T03:03:10.487Z,9.10
2022-12-08T03:06:02.009Z,9.00
2022-12-08T03:08:43.157Z,9.60
2022-12-08T03:11:21.189Z,9.20
2022-12-08T03:13:55.800Z,9.30
2022-12-08T03:16:30.333Z,8.90
2022-12-08T03:19:07.621Z,9.10
2022-12-08T03:21:40.948Z,9.70
2022-12-08T03:24:14.117Z,10.00
2022-12-08T03:26:51.892Z,8.90
2022-12-08T03:29:23.952Z,8.70
2022-12-08T03:31:58.695Z,7.90
2022-12-08T03:34:31.434Z,7.60
2022-12-08T03:37:04.992Z,8.20
2022-12-08T03:42:06.527Z,7.10
2022-12-08T03:44:38.024Z,7.10
2022-12-08T03:47:09.606Z,7.20
2022-12-08T03:49:41.164Z,9.60
2022-12-08T03:52:12.752Z,9.50
2022-12-08T03:54:44.364Z,9.70
2022-12-08T03:57:16.138Z,10.30
2022-12-08T03:59:47.670Z,11.00
2022-12-08T04:02:19.203Z,10.60
2022-12-08T04:04:50.815Z,10.60
2022-12-08T04:07:22.310Z,11.70
2022-12-08T04:09:53.817Z,11.30
2022-12-08T04:12:25.316Z,11.80
2022-12-08T04:14:56.802Z,11.40
2022-12-08T04:17:28.376Z,10.90
2022-12-08T04:20:00.042Z,11.50
2022-12-08T04:22:31.769Z,10.60
2022-12-08T04:25:03.549Z,9.00
2022-12-08T04:27:35.063Z,9.40
2022-12-08T04:30:08.061Z,9.30
2022-12-08T04:32:44.237Z,8.80
2022-12-08T04:35:18.834Z,9.90
2022-12-08T04:37:50.345Z,11.10
2022-12-08T04:40:21.985Z,11.40
2022-12-08T04:42:53.469Z,11.20
2022-12-08T04:45:25.072Z,10.80
2022-12-08T04:47:56.555Z,11.00
2022-12-08T04:50:28.625Z,10.60
2022-12-08T04:53:00.196Z,10.50
2022-12-08T04:55:31.733Z,11.70
2022-12-08T04:58:03.195Z,12.10
2022-12-08T05:00:34.720Z,11.00
2022-12-08T05:03:06.234Z,12.10
2022-12-08T05:05:37.796Z,14.10
2022-12-08T05:08:10.049Z,13.60
2022-12-08T05:10:41.938Z,12.60
2022-12-08T05:13:13.506Z,12.30
2022-12-08T05:15:45.090Z,11.20
2022-12-08T05:18:16.584Z,10.80
2022-12-08T05:20:48.113Z,11.40
2022-12-08T05:23:19.551Z,10.70
2022-12-08T05:25:51.052Z,9.90
2022-12-08T05:31:16.293Z,12.50
2022-12-08T05:33:50.024Z,12.20
2022-12-08T05:36:22.114Z,12.90
2022-12-08T05:38:53.627Z,13.90
2022-12-08T05:41:25.355Z,13.90
2022-12-08T05:43:56.829Z,13.80
2022-12-08T05:46:28.518Z,14.00
2022-12-08T05:49:01.876Z,14.20
2022-12-08T05:51:33.429Z,14.50
2022-12-08T05:54:04.949Z,14.60
2022-12-08T05:56:36.519Z,15.10
2022-12-08T05:59:09.641Z,15.00
2022-12-08T06:01:42.432Z,15.80
2022-12-08T06:04:14.015Z,14.70
2022-12-08T06:06:45.557Z,10.80
2022-12-08T06:09:17.065Z,11.10
2022-12-08T06:11:48.681Z,11.20
2022-12-08T06:14:20.421Z,11.60
2022-12-08T06:16:52.071Z,11.90
2022-12-08T06:19:23.635Z,10.90
2022-12-08T06:21:55.109Z,12.30
2022-12-08T06:24:26.883Z,12.30
2022-12-08T06:26:58.440Z,13.60
2022-12-08T06:29:29.917Z,13.70
2022-12-08T06:32:01.582Z,13.20
2022-12-08T06:34:33.225Z,12.80
2022-12-08T06:37:04.672Z,12.50
2022-12-08T06:39:36.204Z,13.50
2022-12-08T06:42:25.338Z,12.10
2022-12-08T06:44:57.097Z,12.60
2022-12-08T06:47:28.721Z,12.10
2022-12-08T06:50:00.250Z,11.90
2022-12-08T06:52:31.912Z,11.60
2022-12-08T06:55:03.419Z,10.80
2022-12-08T06:57:35.037Z,9.40
2022-12-08T07:00:08.395Z,10.10
2022-12-08T07:02:40.133Z,9.90
2022-12-08T07:05:11.760Z,9.80
2022-12-08T07:07:43.483Z,24.90
2022-12-08T07:10:15.073Z,10.40
2022-12-08T07:12:46.638Z,9.90
2022-12-08T07:15:18.648Z,10.20
2022-12-08T07:17:56.288Z,11.00
2022-12-08T07:20:30.927Z,11.80
2022-12-08T07:23:02.482Z,10.90
2022-12-08T07:25:34.101Z,11.10
2022-12-08T07:28:10.600Z,12.60
2022-12-08T07:30:42.307Z,12.20
2022-12-08T07:33:13.958Z,12.20
2022-12-08T07:35:49.283Z,11.00
2022-12-08T07:38:21.107Z,10.40
2022-12-08T07:40:53.219Z,11.30
2022-12-08T07:43:25.409Z,12.00
2022-12-08T07:45:57.022Z,11.60
2022-12-08T07:48:28.893Z,10.40
2022-12-08T07:51:05.086Z,9.80
2022-12-08T07:53:36.636Z,9.80
2022-12-08T07:56:11.150Z,9.30
2022-12-08T07:58:45.768Z,9.20
2022-12-08T08:01:28.414Z,9.30
2022-12-08T08:04:02.385Z,8.30
2022-12-08T08:06:34.956Z,9.90
2022-12-08T08:09:06.743Z,10.00
2022-12-08T08:11:38.496Z,10.40
2022-12-08T08:14:10.060Z,10.30
2022-12-08T08:16:46.621Z,7.80
2022-12-08T08:19:19.097Z,10.20
2022-12-08T08:21:50.609Z,10.10
2022-12-08T08:24:24.093Z,10.80
2022-12-08T08:26:55.644Z,10.40
2022-12-08T08:29:27.486Z,9.30
2022-12-08T08:31:59.172Z,9.80
2022-12-08T08:34:30.817Z,8.90
2022-12-08T08:37:02.491Z,8.70
2022-12-08T08:39:34.061Z,9.10
2022-12-08T08:42:05.684Z,8.80
2022-12-08T08:44:38.853Z,9.10
2022-12-08T08:47:10.443Z,9.20
2022-12-08T08:49:42.323Z,9.20
2022-12-08T08:52:13.890Z,8.90
2022-12-08T08:54:45.487Z,9.60
2022-12-08T08:57:23.642Z,9.70
2022-12-08T08:59:57.091Z,9.30
2022-12-08T09:02:28.640Z,10.40
2022-12-08T09:05:00.317Z,8.80
2022-12-08T09:07:32.241Z,8.90
2022-12-08T09:10:04.453Z,9.30
2022-12-08T09:12:36.147Z,9.20
2022-12-08T09:15:08.943Z,7.60
2022-12-08T09:17:40.502Z,8.50
2022-12-08T09:20:12.669Z,10.50
2022-12-08T09:22:44.260Z,9.50
2022-12-08T09:25:16.245Z,9.00
2022-12-08T09:27:47.835Z,10.30
2022-12-08T09:30:19.744Z,9.90
2022-12-08T09:32:51.254Z,10.50
2022-12-08T09:35:22.866Z,10.90
2022-12-08T09:37:54.404Z,11.10
2022-12-08T09:40:27.761Z,11.10
2022-12-08T09:43:08.145Z,11.50
2022-12-08T09:45:40.480Z,8.90
2022-12-08T09:48:17.363Z,11.40
2022-12-08T09:50:55.201Z,13.60
2022-12-08T09:53:35.260Z,12.00
2022-12-08T09:56:14.466Z,13.60
2022-12-08T09:58:53.489Z,12.00
2022-12-08T10:01:28.924Z,12.00
2022-12-08T10:04:01.391Z,12.80
2022-12-08T10:06:39.765Z,11.70
2022-12-08T10:09:27.882Z,11.60
2022-12-08T10:12:08.876Z,11.90
2022-12-08T10:14:45.437Z,11.40
2022-12-08T10:17:23.004Z,10.00
2022-12-08T10:20:00.580Z,9.10
2022-12-08T10:22:41.282Z,8.30
2022-12-08T10:25:19.753Z,8.40
2022-12-08T10:27:55.155Z,6.60
2022-12-08T10:30:26.882Z,6.60
2022-12-08T10:32:58.403Z,6.80
2022-12-08T10:35:46.260Z,7.70
2022-12-08T10:38:24.360Z,6.50
2022-12-08T10:41:02.073Z,6.50
2022-12-08T10:43:35.310Z,5.90
2022-12-08T10:46:16.076Z,6.40
2022-12-08T10:48:53.626Z,5.20
2022-12-08T10:51:41.188Z,5.50
2022-12-08T10:54:29.056Z,6.40
2022-12-08T10:57:01.026Z,6.90
2022-12-08T10:59:35.715Z,5.80
2022-12-08T11:02:20.380Z,5.40
2022-12-08T11:05:00.211Z,6.00
2022-12-08T11:07:31.969Z,6.50
2022-12-08T11:10:03.916Z,6.70
2022-12-08T11:12:36.664Z,5.50
2022-12-08T11:15:15.442Z,6.20
2022-12-08T11:17:57.388Z,5.40
2022-12-08T11:20:41.728Z,5.90
2022-12-08T11:23:25.232Z,5.90
2022-12-08T11:26:02.386Z,5.80
2022-12-08T11:28:33.995Z,5.70
2022-12-08T11:31:15.908Z,6.30
2022-12-08T11:33:48.392Z,5.40
2022-12-08T11:36:21.543Z,6.10
2022-12-08T11:38:56.768Z,6.00
2022-12-08T11:41:31.064Z,5.60
2022-12-08T11:44:14.561Z,6.00
2022-12-08T11:46:52.005Z,5.30
2022-12-08T11:49:26.861Z,5.70
2022-12-08T11:52:05.267Z,5.20
2022-12-08T11:54:41.077Z,6.60
2022-12-08T11:57:16.457Z,5.60
2022-12-08T11:59:50.921Z,5.80
2022-12-08T12:02:25.223Z,5.90
2022-12-08T12:05:02.074Z,5.90
2022-12-08T12:08:04.663Z,5.80
2022-12-08T12:11:00.983Z,6.90
2022-12-08T12:13:56.361Z,5.50
2022-12-08T12:16:56.738Z,5.60
2022-12-08T12:19:31.067Z,6.20
2022-12-08T12:22:11.662Z,5.10
2022-12-08T12:24:48.807Z,4.40
2022-12-08T12:27:29.232Z,5.00
2022-12-08T12:30:03.923Z,6.30
2022-12-08T12:32:48.182Z,5.80
2022-12-08T12:35:28.517Z,4.20
2022-12-08T12:38:03.092Z,3.90
2022-12-08T12:40:44.477Z,5.40
2022-12-08T12:43:28.686Z,5.00
2022-12-08T12:46:30.784Z,4.60
2022-12-08T12:49:53.301Z,5.70
2022-12-08T12:52:45.950Z,6.50
2022-12-08T12:55:29.151Z,5.40
2022-12-08T12:58:04.831Z,6.90
2022-12-08T13:00:36.353Z,7.00
2022-12-08T13:03:18.077Z,7.00
2022-12-08T13:05:54.252Z,7.10
2022-12-08T13:08:27.916Z,6.00
2022-12-08T13:11:03.790Z,6.90
2022-12-08T13:13:35.692Z,6.50
2022-12-08T13:16:19.764Z,6.40
2022-12-08T13:18:53.283Z,8.00
2022-12-08T13:21:32.296Z,7.90
2022-12-08T13:24:28.094Z,8.80
2022-12-08T13:27:34.083Z,8.00
2022-12-08T13:30:40.184Z,6.90
2022-12-08T13:33:18.397Z,8.80
2022-12-08T13:36:12.659Z,8.00
2022-12-08T13:38:47.116Z,8.10
2022-12-08T13:41:32.037Z,8.30
2022-12-08T13:45:03.667Z,8.90
2022-12-08T13:59:09.766Z,8.40
2022-12-08T14:01:46.762Z,8.30
2022-12-08T14:09:44.611Z,10.50
2022-12-08T14:12:22.751Z,10.40
2022-12-08T14:15:04.209Z,11.20
2022-12-08T14:17:36.611Z,12.50
2022-12-08T14:20:24.726Z,11.30
2022-12-08T14:22:57.165Z,11.90
2022-12-08T14:25:29.777Z,13.60
2022-12-08T14:28:04.953Z,13.40
2022-12-08T14:30:39.531Z,13.10
2022-12-08T14:33:17.437Z,13.20
2022-12-08T14:35:54.921Z,12.80
2022-12-08T14:38:27.870Z,12.70
2022-12-08T14:41:07.883Z,11.70
2022-12-08T14:43:40.881Z,11.00
2022-12-08T14:46:24.037Z,11.40
2022-12-08T14:48:57.016Z,11.40
2022-12-08T14:51:32.489Z,11.00
2022-12-08T14:54:08.425Z,11.20
2022-12-08T14:56:42.033Z,10.80
2022-12-08T14:59:18.756Z,13.70
2022-12-08T15:01:52.627Z,14.60
2022-12-08T15:04:28.065Z,14.70
2022-12-08T15:07:05.877Z,14.70
2022-12-08T15:09:42.036Z,14.40
2022-12-08T15:12:27.296Z,14.00
2022-12-08T15:15:02.738Z,15.80
2022-12-08T15:17:42.713Z,15.20
2022-12-08T15:23:23.098Z,16.60
2022-12-08T15:25:55.125Z,17.90
2022-12-08T15:28:30.366Z,16.80
2022-12-08T15:31:02.410Z,16.10
2022-12-08T15:33:33.939Z,13.90
2022-12-08T15:36:12.058Z,13.30
2022-12-08T15:38:43.985Z,13.40
2022-12-08T15:41:15.567Z,13.40
2022-12-08T15:43:47.303Z,15.70
2022-12-08T15:46:19.239Z,19.60
2022-12-08T15:48:56.475Z,20.30
2022-12-08T15:51:31.040Z,23.20
2022-12-08T15:54:02.543Z,26.50
2022-12-08T15:56:34.448Z,28.20
2022-12-08T15:59:11.286Z,28.60
2022-12-08T16:01:43.258Z,29.50
2022-12-08T16:07:21.967Z,29.70
2022-12-08T16:09:55.306Z,31.30
2022-12-08T16:13:47.901Z,29.20
2022-12-08T16:15:51.616Z,25.90
2022-12-08T16:18:34.213Z,25.50
2022-12-08T16:21:22.865Z,23.50
2022-12-08T16:24:05.981Z,26.80
2022-12-08T16:27:58.085Z,31.90
2022-12-08T16:29:34.262Z,27.40
2022-12-08T16:32:05.996Z,28.50
2022-12-08T16:34:37.660Z,31.60
2022-12-08T16:37:09.999Z,31.70
2022-12-08T16:39:45.765Z,34.50
2022-12-08T16:42:37.513Z,31.20
2022-12-08T16:45:12.245Z,31.70
2022-12-08T16:47:46.069Z,32.80
2022-12-08T16:50:20.518Z,29.80
2022-12-08T16:52:57.550Z,25.00
2022-12-08T16:55:29.452Z,24.20
2022-12-08T16:58:01.132Z,24.20
2022-12-08T17:00:36.724Z,24.40
2022-12-08T17:03:09.501Z,23.50
2022-12-08T17:05:50.616Z,27.10
2022-12-08T17:08:24.116Z,27.10
2022-12-08T17:11:08.238Z,25.20
2022-12-08T17:13:42.300Z,22.30
2022-12-08T17:16:19.262Z,23.00
2022-12-08T17:18:51.277Z,24.10
2022-12-08T17:21:23.268Z,24.40
2022-12-08T17:23:55.851Z,24.70
2022-12-08T17:26:27.398Z,24.70
2022-12-08T17:29:00.904Z,27.80
2022-12-08T17:31:33.840Z,29.00
2022-12-08T17:34:10.242Z,30.80
2022-12-08T17:36:42.171Z,27.30
2022-12-08T17:39:18.437Z,26.90
2022-12-08T17:41:50.675Z,23.00
2022-12-08T17:44:22.758Z,22.60
2022-12-08T17:46:54.245Z,21.40
2022-12-08T17:49:29.561Z,21.60
2022-12-08T17:52:03.224Z,24.60
2022-12-08T17:57:05.507Z,24.30
2022-12-08T17:59:37.077Z,26.70
2022-12-08T18:02:11.316Z,26.40
2022-12-08T18:04:42.887Z,27.20
2022-12-08T18:07:14.416Z,28.90
2022-12-08T18:09:45.930Z,27.40
2022-12-08T18:12:23.241Z,27.50
2022-12-08T18:14:55.279Z,27.00
2022-12-08T18:17:26.816Z,25.30
2022-12-08T18:19:58.480Z,26.40
2022-12-08T18:22:30.133Z,25.60
2022-12-08T18:25:01.730Z,26.70
2022-12-08T18:27:37.303Z,26.70
2022-12-08T18:30:17.951Z,23.70
2022-12-08T18:32:54.197Z,22.90
2022-12-08T18:35:29.006Z,22.90
2022-12-08T18:38:01.109Z,21.30
2022-12-08T18:40:32.729Z,22.60
2022-12-08T18:43:04.554Z,22.60
2022-12-08T18:45:36.997Z,24.10
2022-12-08T18:48:08.788Z,33.80
2022-12-08T18:50:44.778Z,38.80
2022-12-08T18:53:16.271Z,40.00
2022-12-08T18:55:50.906Z,40.30
2022-12-08T18:58:22.405Z,40.40
2022-12-08T19:00:54.003Z,40.60
2022-12-08T19:03:25.621Z,41.50
2022-12-08T19:06:06.226Z,44.50
2022-12-08T19:08:37.945Z,43.30
2022-12-08T19:11:19.977Z,47.70
2022-12-08T19:13:51.584Z,47.50
2022-12-08T19:16:23.672Z,52.30
2022-12-08T19:18:55.215Z,51.10
2022-12-08T19:21:26.781Z,49.60
2022-12-08T19:23:59.885Z,50.10
2022-12-08T19:26:31.758Z,44.40
2022-12-08T19:29:03.733Z,39.60
2022-12-08T19:31:35.315Z,38.60
2022-12-08T19:34:10.807Z,38.50
2022-12-08T19:36:43.252Z,40.10
2022-12-08T19:39:35.586Z,38.40
2022-12-08T19:42:31.411Z,38.30
2022-12-08T19:45:06.312Z,36.10
2022-12-08T19:47:37.957Z,40.10
2022-12-08T19:50:30.010Z,42.40
2022-12-08T19:53:02.186Z,40.90
2022-12-08T19:55:34.340Z,38.70
2022-12-08T19:58:07.003Z,38.80
2022-12-08T20:00:41.450Z,37.90
2022-12-08T20:03:15.091Z,40.10
2022-12-08T20:05:48.626Z,41.50
2022-12-08T20:08:20.257Z,43.50
2022-12-08T20:10:56.066Z,45.50
2022-12-08T20:13:45.600Z,45.50
2022-12-08T20:16:18.041Z,47.30
2022-12-08T20:18:49.644Z,47.20
2022-12-08T20:21:22.009Z,47.30
2022-12-08T20:23:53.736Z,47.90
2022-12-08T20:26:26.589Z,42.60
2022-12-08T20:28:58.198Z,40.50
2022-12-08T20:31:32.071Z,38.40
2022-12-08T20:34:03.853Z,38.00
2022-12-08T20:36:35.439Z,39.50
2022-12-08T20:39:11.639Z,42.30
2022-12-08T20:41:43.645Z,41.40
2022-12-08T20:44:15.227Z,39.30
2022-12-08T20:46:49.627Z,44.20
2022-12-08T20:49:21.511Z,45.40
2022-12-08T20:51:53.248Z,50.40
2022-12-08T20:54:24.708Z,56.10
2022-12-08T20:56:56.380Z,60.50
2022-12-08T20:59:28.367Z,60.10
2022-12-08T21:02:00.447Z,64.50
2022-12-08T21:04:32.581Z,64.20
2022-12-08T21:07:04.567Z,62.60
2022-12-08T21:09:36.627Z,62.80
2022-12-08T21:12:09.343Z,60.80
2022-12-08T21:14:42.445Z,60.40
2022-12-08T21:17:16.455Z,55.00
2022-12-08T21:19:48.224Z,55.50
2022-12-08T21:22:21.092Z,56.00
2022-12-08T21:24:53.263Z,49.00
2022-12-08T21:27:24.895Z,45.90
2022-12-08T21:29:56.530Z,46.90
2022-12-08T21:32:30.646Z,47.10
2022-12-08T21:35:03.003Z,45.50
2022-12-08T21:37:35.469Z,44.80
2022-12-08T21:40:09.715Z,44.60
2022-12-08T21:42:44.588Z,44.70
2022-12-08T21:45:19.087Z,55.20
2022-12-08T21:47:51.627Z,56.90
2022-12-08T21:50:23.423Z,59.10
2022-12-08T21:52:55.064Z,59.80
2022-12-08T21:55:26.926Z,61.10
2022-12-08T21:58:00.978Z,60.90
2022-12-08T22:00:33.547Z,61.80
2022-12-08T22:03:06.113Z,64.00
2022-12-08T22:05:37.882Z,63.20
2022-12-08T22:08:10.174Z,62.60
2022-12-08T22:10:41.956Z,64.50
2022-12-08T22:13:13.637Z,57.10
2022-12-08T22:15:45.290Z,52.00
2022-12-08T22:18:16.949Z,48.10
2022-12-08T22:20:48.753Z,40.00
2022-12-08T22:23:21.321Z,34.80
2022-12-08T22:25:59.339Z,33.30
2022-12-08T22:28:35.835Z,32.10
2022-12-08T22:31:13.088Z,30.10
2022-12-08T22:33:45.573Z,28.40
2022-12-08T22:36:19.846Z,28.50
2022-12-08T22:38:52.527Z,29.90
2022-12-08T22:41:24.530Z,31.60
2022-12-08T22:43:56.220Z,29.80
2022-12-08T22:46:28.938Z,31.30
2022-12-08T22:49:00.841Z,29.50
2022-12-08T22:51:32.694Z,30.00
2022-12-08T22:54:05.554Z,30.10
2022-12-08T22:56:37.274Z,29.50
2022-12-08T22:59:09.830Z,28.20
2022-12-08T23:01:41.320Z,27.60
2022-12-08T23:04:17.708Z,25.20
2022-12-08T23:06:50.291Z,25.80
2022-12-08T23:09:22.309Z,25.40
2022-12-08T23:11:54.204Z,21.90
2022-12-08T23:14:25.801Z,21.10
2022-12-08T23:16:57.464Z,19.50
2022-12-08T23:19:29.153Z,19.20
2022-12-08T23:22:00.676Z,18.00
2022-12-08T23:24:33.413Z,17.20
2022-12-08T23:27:06.061Z,16.30
2022-12-08T23:29:37.960Z,17.90
2022-12-08T23:32:09.659Z,19.00
2022-12-08T23:34:42.238Z,19.70
2022-12-08T23:37:13.925Z,21.20
2022-12-08T23:39:45.643Z,20.80
2022-12-08T23:42:17.217Z,20.90
2022-12-08T23:44:48.951Z,19.20
2022-12-08T23:47:20.841Z,19.40
2022-12-08T23:49:52.639Z,20.20
2022-12-08T23:52:24.379Z,20.60
2022-12-08T23:54:57.116Z,19.60
2022-12-08T23:57:28.729Z,19.60
